sensor_id;sensor_type;location;lat;lon;timestamp;pressure;altitude;pressure_sealevel;temperature;humidity
4814;BME280;15375;48.540;9.268;2022-10-26T00:00:25;97375.09;;;11.53;100.00
4814;BME280;15375;48.540;9.268;2022-10-26T00:02:52;97371.25;;;11.51;100.00
4814;BME280;15375;48.540;9.268;2022-10-26T00:05:18;97330.66;;;11.33;100.00
4814;BME280;15375;48.540;9.268;2022-10-26T00:07:43;97363.41;;;11.53;100.00
4814;BME280;15375;48.540;9.268;2022-10-26T00:10:09;97364.97;;;11.54;100.00
4814;BME280;15375;48.540;9.268;2022-10-26T00:12:37;97371.03;;;11.62;100.00
4814;BME280;15375;48.540;9.268;2022-10-26T00:15:02;97361.28;;;11.61;100.00
4814;BME280;15375;48.540;9.268;2022-10-26T00:17:28;97354.38;;;11.56;100.00
4814;BME280;15375;48.540;9.268;2022-10-26T00:19:53;97357.38;;;11.62;100.00
4814;BME280;15375;48.540;9.268;2022-10-26T00:22:19;97360.44;;;11.47;100.00
4814;BME280;15375;48.540;9.268;2022-10-26T00:24:44;97364.00;;;11.44;100.00
4814;BME280;15375;48.540;9.268;2022-10-26T00:27:09;97345.53;;;11.32;100.00
4814;BME280;15375;48.540;9.268;2022-10-26T00:29:35;97368.34;;;11.42;100.00
4814;BME280;15375;48.540;9.268;2022-10-26T00:32:00;97336.34;;;11.23;100.00
4814;BME280;15375;48.540;9.268;2022-10-26T00:34:25;97349.44;;;11.31;100.00
4814;BME280;15375;48.540;9.268;2022-10-26T00:36:51;97356.56;;;11.45;100.00
4814;BME280;15375;48.540;9.268;2022-10-26T00:39:16;97358.44;;;11.48;100.00
4814;BME280;15375;48.540;9.268;2022-10-26T00:41:41;97323.25;;;11.34;100.00
4814;BME280;15375;48.540;9.268;2022-10-26T00:49:39;97373.34;;;11.63;100.00
4814;BME280;15375;48.540;9.268;2022-10-26T00:52:05;97364.03;;;11.61;100.00
4814;BME280;15375;48.540;9.268;2022-10-26T00:54:31;97361.66;;;11.63;100.00
4814;BME280;15375;48.540;9.268;2022-10-26T00:56:57;97360.03;;;11.65;100.00
4814;BME280;15375;48.540;9.268;2022-10-26T00:59:23;97348.06;;;11.59;100.00
4814;BME280;15375;48.540;9.268;2022-10-26T01:01:49;97382.44;;;11.76;100.00
4814;BME280;15375;48.540;9.268;2022-10-26T01:04:15;97361.72;;;11.59;100.00
4814;BME280;15375;48.540;9.268;2022-10-26T01:06:42;97347.78;;;11.53;100.00
4814;BME280;15375;48.540;9.268;2022-10-26T01:09:09;97322.47;;;11.33;100.00
4814;BME280;15375;48.540;9.268;2022-10-26T01:11:36;97370.13;;;11.68;100.00
4814;BME280;15375;48.540;9.268;2022-10-26T01:14:05;97358.63;;;11.77;100.00
4814;BME280;15375;48.540;9.268;2022-10-26T01:27:20;97328.25;;;11.91;100.00
4814;BME280;15375;48.540;9.268;2022-10-26T01:35:29;97319.53;;;11.80;100.00
4814;BME280;15375;48.540;9.268;2022-10-26T01:38:03;97330.03;;;11.81;100.00
4814;BME280;15375;48.540;9.268;2022-10-26T01:43:06;97321.84;;;11.81;100.00
4814;BME280;15375;48.540;9.268;2022-10-26T01:45:32;97285.75;;;11.54;100.00
4814;BME280;15375;48.540;9.268;2022-10-26T01:48:01;97335.44;;;11.85;100.00
4814;BME280;15375;48.540;9.268;2022-10-26T01:50:28;97309.66;;;11.66;100.00
4814;BME280;15375;48.540;9.268;2022-10-26T01:52:54;97318.69;;;11.63;100.00
4814;BME280;15375;48.540;9.268;2022-10-26T02:01:41;97320.63;;;11.46;100.00
4814;BME280;15375;48.540;9.268;2022-10-26T02:09:36;97316.22;;;11.33;100.00
4814;BME280;15375;48.540;9.268;2022-10-26T02:12:20;97302.69;;;11.29;100.00
4814;BME280;15375;48.540;9.268;2022-10-26T02:14:55;97322.47;;;11.33;100.00
4814;BME280;15375;48.540;9.268;2022-10-26T02:17:28;97324.97;;;11.44;100.00
4814;BME280;15375;48.540;9.268;2022-10-26T02:20:03;97298.16;;;11.39;100.00
4814;BME280;15375;48.540;9.268;2022-10-26T02:22:36;97305.69;;;11.51;100.00
4814;BME280;15375;48.540;9.268;2022-10-26T02:25:12;97305.31;;;11.52;100.00
4814;BME280;15375;48.540;9.268;2022-10-26T02:27:43;97305.59;;;11.38;100.00
4814;BME280;15375;48.540;9.268;2022-10-26T02:30:11;97319.03;;;11.49;100.00
4814;BME280;15375;48.540;9.268;2022-10-26T02:32:41;97329.50;;;11.50;100.00
4814;BME280;15375;48.540;9.268;2022-10-26T02:35:11;97341.50;;;11.57;100.00
4814;BME280;15375;48.540;9.268;2022-10-26T02:37:37;97323.44;;;11.43;100.00
4814;BME280;15375;48.540;9.268;2022-10-26T02:40:08;97338.47;;;11.51;100.00
4814;BME280;15375;48.540;9.268;2022-10-26T02:42:34;97330.28;;;11.51;100.00
4814;BME280;15375;48.540;9.268;2022-10-26T02:45:05;97343.78;;;11.58;100.00
4814;BME280;15375;48.540;9.268;2022-10-26T02:47:32;97347.28;;;11.59;100.00
4814;BME280;15375;48.540;9.268;2022-10-26T02:49:58;97353.88;;;11.61;100.00
4814;BME280;15375;48.540;9.268;2022-10-26T02:52:42;97351.72;;;11.52;100.00
4814;BME280;15375;48.540;9.268;2022-10-26T02:55:15;97364.97;;;11.54;100.00
4814;BME280;15375;48.540;9.268;2022-10-26T02:57:46;97371.34;;;11.47;100.00
4814;BME280;15375;48.540;9.268;2022-10-26T03:00:15;97374.63;;;11.39;100.00
4814;BME280;15375;48.540;9.268;2022-10-26T03:02:42;97358.47;;;11.28;100.00
4814;BME280;15375;48.540;9.268;2022-10-26T03:05:19;97377.44;;;11.35;100.00
4814;BME280;15375;48.540;9.268;2022-10-26T03:07:45;97382.47;;;11.37;100.00
4814;BME280;15375;48.540;9.268;2022-10-26T03:10:10;97378.47;;;11.41;100.00
4814;BME280;15375;48.540;9.268;2022-10-26T03:12:36;97352.22;;;11.28;100.00
4814;BME280;15375;48.540;9.268;2022-10-26T03:15:02;97373.19;;;11.34;100.00
4814;BME280;15375;48.540;9.268;2022-10-26T03:17:28;97382.41;;;11.40;100.00
4814;BME280;15375;48.540;9.268;2022-10-26T03:19:53;97352.88;;;11.16;100.00
4814;BME280;15375;48.540;9.268;2022-10-26T03:22:20;97394.25;;;11.34;100.00
4814;BME280;15375;48.540;9.268;2022-10-26T03:24:45;97415.59;;;11.39;100.00
4814;BME280;15375;48.540;9.268;2022-10-26T03:27:11;97421.50;;;11.37;100.00
4814;BME280;15375;48.540;9.268;2022-10-26T03:29:36;97434.84;;;11.51;100.00
4814;BME280;15375;48.540;9.268;2022-10-26T03:32:01;97450.47;;;11.51;100.00
4814;BME280;15375;48.540;9.268;2022-10-26T03:34:27;97442.38;;;11.47;100.00
4814;BME280;15375;48.540;9.268;2022-10-26T03:36:52;97407.84;;;11.37;100.00
4814;BME280;15375;48.540;9.268;2022-10-26T03:39:17;97408.03;;;11.46;100.00
4814;BME280;15375;48.540;9.268;2022-10-26T03:41:43;97395.94;;;11.47;100.00
4814;BME280;15375;48.540;9.268;2022-10-26T03:44:08;97402.22;;;11.64;100.00
4814;BME280;15375;48.540;9.268;2022-10-26T03:46:33;97427.38;;;11.75;100.00
4814;BME280;15375;48.540;9.268;2022-10-26T03:48:59;97396.41;;;11.62;100.00
4814;BME280;15375;48.540;9.268;2022-10-26T03:51:24;97385.03;;;11.64;100.00
4814;BME280;15375;48.540;9.268;2022-10-26T03:53:49;97388.75;;;11.73;100.00
4814;BME280;15375;48.540;9.268;2022-10-26T03:56:15;97425.19;;;11.86;100.00
4814;BME280;15375;48.540;9.268;2022-10-26T03:58:40;97397.66;;;11.58;100.00
4814;BME280;15375;48.540;9.268;2022-10-26T04:01:05;97405.16;;;11.73;100.00
4814;BME280;15375;48.540;9.268;2022-10-26T04:03:31;97424.06;;;11.84;100.00
4814;BME280;15375;48.540;9.268;2022-10-26T04:05:59;97390.75;;;11.89;100.00
4814;BME280;15375;48.540;9.268;2022-10-26T04:08:25;97374.19;;;11.96;100.00
4814;BME280;15375;48.540;9.268;2022-10-26T04:10:50;97354.72;;;11.94;100.00
4814;BME280;15375;48.540;9.268;2022-10-26T04:13:15;97377.88;;;11.89;100.00
4814;BME280;15375;48.540;9.268;2022-10-26T04:15:41;97377.31;;;11.98;100.00
4814;BME280;15375;48.540;9.268;2022-10-26T04:18:08;97343.94;;;11.71;100.00
4814;BME280;15375;48.540;9.268;2022-10-26T04:20:33;97385.56;;;11.94;100.00
4814;BME280;15375;48.540;9.268;2022-10-26T04:23:04;97397.34;;;11.91;100.00
4814;BME280;15375;48.540;9.268;2022-10-26T04:25:30;97386.13;;;11.86;100.00
4814;BME280;15375;48.540;9.268;2022-10-26T04:27:56;97392.38;;;11.86;100.00
4814;BME280;15375;48.540;9.268;2022-10-26T04:30:22;97394.34;;;11.86;100.00
4814;BME280;15375;48.540;9.268;2022-10-26T04:32:47;97388.63;;;11.80;100.00
4814;BME280;15375;48.540;9.268;2022-10-26T04:35:13;97391.69;;;11.82;100.00
4814;BME280;15375;48.540;9.268;2022-10-26T04:37:38;97386.25;;;11.82;100.00
4814;BME280;15375;48.540;9.268;2022-10-26T04:40:04;97383.91;;;11.81;100.00
4814;BME280;15375;48.540;9.268;2022-10-26T04:42:29;97381.94;;;11.81;100.00
4814;BME280;15375;48.540;9.268;2022-10-26T04:44:58;97387.50;;;11.78;100.00
4814;BME280;15375;48.540;9.268;2022-10-26T04:47:23;97362.91;;;11.58;100.00
4814;BME280;15375;48.540;9.268;2022-10-26T04:49:49;97380.94;;;11.75;100.00
4814;BME280;15375;48.540;9.268;2022-10-26T04:52:14;97340.03;;;11.52;100.00
4814;BME280;15375;48.540;9.268;2022-10-26T04:54:39;97371.31;;;11.67;100.00
4814;BME280;15375;48.540;9.268;2022-10-26T04:57:05;97368.13;;;11.72;100.00
4814;BME280;15375;48.540;9.268;2022-10-26T04:59:30;97364.25;;;11.70;100.00
4814;BME280;15375;48.540;9.268;2022-10-26T05:01:55;97374.59;;;11.78;100.00
4814;BME280;15375;48.540;9.268;2022-10-26T05:04:21;97373.13;;;11.74;100.00
4814;BME280;15375;48.540;9.268;2022-10-26T05:06:46;97372.09;;;11.68;100.00
4814;BME280;15375;48.540;9.268;2022-10-26T05:09:11;97376.78;;;11.67;100.00
4814;BME280;15375;48.540;9.268;2022-10-26T05:11:37;97365.13;;;11.63;100.00
4814;BME280;15375;48.540;9.268;2022-10-26T05:14:02;97359.84;;;11.56;100.00
4814;BME280;15375;48.540;9.268;2022-10-26T05:16:27;97383.38;;;11.70;100.00
4814;BME280;15375;48.540;9.268;2022-10-26T05:18:53;97383.09;;;11.64;100.00
4814;BME280;15375;48.540;9.268;2022-10-26T05:21:18;97388.06;;;11.69;100.00
4814;BME280;15375;48.540;9.268;2022-10-26T05:23:50;97387.56;;;11.74;100.00
4814;BME280;15375;48.540;9.268;2022-10-26T05:26:18;97377.00;;;11.57;100.00
4814;BME280;15375;48.540;9.268;2022-10-26T05:28:43;97383.78;;;11.68;100.00
4814;BME280;15375;48.540;9.268;2022-10-26T05:31:09;97363.06;;;11.51;100.00
4814;BME280;15375;48.540;9.268;2022-10-26T05:33:37;97380.50;;;11.57;100.00
4814;BME280;15375;48.540;9.268;2022-10-26T05:36:03;97388.06;;;11.69;100.00
4814;BME280;15375;48.540;9.268;2022-10-26T05:38:34;97380.06;;;11.59;100.00
4814;BME280;15375;48.540;9.268;2022-10-26T05:40:59;97377.50;;;11.51;100.00
4814;BME280;15375;48.540;9.268;2022-10-26T05:43:28;97371.75;;;11.46;100.00
4814;BME280;15375;48.540;9.268;2022-10-26T05:45:54;97385.75;;;11.48;100.00
4814;BME280;15375;48.540;9.268;2022-10-26T05:48:20;97382.81;;;11.39;100.00
4814;BME280;15375;48.540;9.268;2022-10-26T05:50:45;97391.31;;;11.44;100.00
4814;BME280;15375;48.540;9.268;2022-10-26T05:53:11;97388.63;;;11.41;100.00
4814;BME280;15375;48.540;9.268;2022-10-26T05:55:36;97369.22;;;11.35;100.00
4814;BME280;15375;48.540;9.268;2022-10-26T05:58:02;97382.69;;;11.46;100.00
4814;BME280;15375;48.540;9.268;2022-10-26T06:00:29;97408.50;;;11.61;100.00
4814;BME280;15375;48.540;9.268;2022-10-26T06:03:07;97427.88;;;11.70;100.00
4814;BME280;15375;48.540;9.268;2022-10-26T06:05:54;97424.38;;;11.70;100.00
4814;BME280;15375;48.540;9.268;2022-10-26T06:08:21;97430.13;;;11.75;100.00
4814;BME280;15375;48.540;9.268;2022-10-26T06:10:48;97432.84;;;11.75;100.00
4814;BME280;15375;48.540;9.268;2022-10-26T06:13:14;97437.03;;;11.80;100.00
4814;BME280;15375;48.540;9.268;2022-10-26T06:21:31;97445.66;;;11.78;100.00
4814;BME280;15375;48.540;9.268;2022-10-26T06:32:18;97437.09;;;11.76;100.00
4814;BME280;15375;48.540;9.268;2022-10-26T06:34:51;97453.13;;;11.94;100.00
4814;BME280;15375;48.540;9.268;2022-10-26T06:37:17;97458.09;;;11.99;100.00
4814;BME280;15375;48.540;9.268;2022-10-26T06:39:45;97467.00;;;12.03;100.00
4814;BME280;15375;48.540;9.268;2022-10-26T06:42:12;97456.19;;;12.15;100.00
4814;BME280;15375;48.540;9.268;2022-10-26T06:44:38;97463.72;;;12.28;100.00
4814;BME280;15375;48.540;9.268;2022-10-26T06:47:25;97476.16;;;12.48;100.00
4814;BME280;15375;48.540;9.268;2022-10-26T06:52:43;97487.63;;;12.75;100.00
4814;BME280;15375;48.540;9.268;2022-10-26T06:55:14;97483.25;;;12.78;100.00
4814;BME280;15375;48.540;9.268;2022-10-26T06:57:41;97481.59;;;12.97;100.00
4814;BME280;15375;48.540;9.268;2022-10-26T07:02:33;97492.50;;;13.16;100.00
4814;BME280;15375;48.540;9.268;2022-10-26T07:04:58;97491.03;;;13.12;100.00
4814;BME280;15375;48.540;9.268;2022-10-26T07:07:26;97486.06;;;13.07;100.00
4814;BME280;15375;48.540;9.268;2022-10-26T07:09:52;97512.84;;;13.15;100.00
4814;BME280;15375;48.540;9.268;2022-10-26T07:12:17;97512.00;;;13.18;100.00
4814;BME280;15375;48.540;9.268;2022-10-26T07:14:43;97505.75;;;13.18;100.00
4814;BME280;15375;48.540;9.268;2022-10-26T07:17:09;97507.13;;;13.26;100.00
4814;BME280;15375;48.540;9.268;2022-10-26T07:19:35;97523.75;;;13.48;100.00
4814;BME280;15375;48.540;9.268;2022-10-26T07:22:00;97524.97;;;13.47;100.00
4814;BME280;15375;48.540;9.268;2022-10-26T07:24:27;97522.22;;;13.47;100.00
4814;BME280;15375;48.540;9.268;2022-10-26T07:26:53;97498.75;;;13.46;100.00
4814;BME280;15375;48.540;9.268;2022-10-26T07:29:22;97531.75;;;13.71;100.00
4814;BME280;15375;48.540;9.268;2022-10-26T07:31:48;97513.66;;;13.73;100.00
4814;BME280;15375;48.540;9.268;2022-10-26T07:34:14;97545.50;;;14.12;100.00
4814;BME280;15375;48.540;9.268;2022-10-26T07:36:39;97548.44;;;14.46;100.00
4814;BME280;15375;48.540;9.268;2022-10-26T07:39:05;97537.00;;;14.60;100.00
4814;BME280;15375;48.540;9.268;2022-10-26T07:41:30;97519.34;;;14.61;100.00
4814;BME280;15375;48.540;9.268;2022-10-26T07:43:56;97553.06;;;15.00;100.00
4814;BME280;15375;48.540;9.268;2022-10-26T07:46:21;97542.50;;;14.98;100.00
4814;BME280;15375;48.540;9.268;2022-10-26T07:48:47;97532.84;;;14.94;100.00
4814;BME280;15375;48.540;9.268;2022-10-26T07:51:12;97563.56;;;15.14;100.00
4814;BME280;15375;48.540;9.268;2022-10-26T07:53:37;97531.88;;;14.88;100.00
4814;BME280;15375;48.540;9.268;2022-10-26T07:56:03;97564.25;;;15.05;100.00
4814;BME280;15375;48.540;9.268;2022-10-26T07:58:28;97570.31;;;15.00;100.00
4814;BME280;15375;48.540;9.268;2022-10-26T08:00:54;97577.66;;;15.03;100.00
4814;BME280;15375;48.540;9.268;2022-10-26T08:03:20;97583.34;;;15.09;100.00
4814;BME280;15375;48.540;9.268;2022-10-26T08:05:46;97576.13;;;15.15;100.00
4814;BME280;15375;48.540;9.268;2022-10-26T08:08:18;97569.94;;;15.23;100.00
4814;BME280;15375;48.540;9.268;2022-10-26T08:10:44;97568.50;;;15.31;100.00
4814;BME280;15375;48.540;9.268;2022-10-26T08:13:10;97572.00;;;15.32;100.00
4814;BME280;15375;48.540;9.268;2022-10-26T08:15:36;97582.44;;;15.37;100.00
4814;BME280;15375;48.540;9.268;2022-10-26T08:18:01;97578.16;;;15.49;100.00
4814;BME280;15375;48.540;9.268;2022-10-26T08:20:27;97558.03;;;15.39;100.00
4814;BME280;15375;48.540;9.268;2022-10-26T08:22:55;97563.66;;;15.48;100.00
4814;BME280;15375;48.540;9.268;2022-10-26T08:25:20;97585.16;;;15.62;100.00
4814;BME280;15375;48.540;9.268;2022-10-26T08:27:45;97583.88;;;15.54;100.00
4814;BME280;15375;48.540;9.268;2022-10-26T08:30:11;97599.25;;;15.52;100.00
4814;BME280;15375;48.540;9.268;2022-10-26T08:32:36;97586.75;;;15.38;100.00
4814;BME280;15375;48.540;9.268;2022-10-26T08:35:02;97598.69;;;15.44;100.00
4814;BME280;15375;48.540;9.268;2022-10-26T08:37:27;97575.00;;;15.25;100.00
4814;BME280;15375;48.540;9.268;2022-10-26T08:39:52;97586.53;;;15.32;100.00
4814;BME280;15375;48.540;9.268;2022-10-26T08:42:32;97576.97;;;15.24;100.00
4814;BME280;15375;48.540;9.268;2022-10-26T08:45:23;97606.41;;;15.49;100.00
4814;BME280;15375;48.540;9.268;2022-10-26T08:47:54;97594.44;;;15.43;100.00
4814;BME280;15375;48.540;9.268;2022-10-26T08:50:28;97613.22;;;15.57;100.00
4814;BME280;15375;48.540;9.268;2022-10-26T08:53:19;97610.34;;;15.61;100.00
4814;BME280;15375;48.540;9.268;2022-10-26T08:56:10;97608.31;;;15.74;100.00
4814;BME280;15375;48.540;9.268;2022-10-26T08:58:46;97605.16;;;15.75;100.00
4814;BME280;15375;48.540;9.268;2022-10-26T09:01:14;97605.75;;;15.92;100.00
4814;BME280;15375;48.540;9.268;2022-10-26T09:03:40;97613.13;;;16.17;100.00
4814;BME280;15375;48.540;9.268;2022-10-26T09:06:17;97616.84;;;16.44;100.00
4814;BME280;15375;48.540;9.268;2022-10-26T09:16:32;97639.44;;;17.22;100.00
4814;BME280;15375;48.540;9.268;2022-10-26T09:24:49;97630.91;;;17.30;100.00
4814;BME280;15375;48.540;9.268;2022-10-26T09:27:27;97629.88;;;17.36;100.00
4814;BME280;15375;48.540;9.268;2022-10-26T09:29:55;97633.31;;;17.18;100.00
4814;BME280;15375;48.540;9.268;2022-10-26T09:32:29;97638.25;;;17.33;100.00
4814;BME280;15375;48.540;9.268;2022-10-26T09:35:02;97644.03;;;17.16;100.00
4814;BME280;15375;48.540;9.268;2022-10-26T09:37:35;97632.38;;;17.12;100.00
4814;BME280;15375;48.540;9.268;2022-10-26T09:45:36;97652.50;;;17.31;100.00
4814;BME280;15375;48.540;9.268;2022-10-26T09:50:39;97651.16;;;17.45;100.00
4814;BME280;15375;48.540;9.268;2022-10-26T09:53:08;97648.78;;;17.56;100.00
4814;BME280;15375;48.540;9.268;2022-10-26T09:55:40;97654.94;;;17.69;100.00
4814;BME280;15375;48.540;9.268;2022-10-26T09:58:13;97662.03;;;17.88;100.00
4814;BME280;15375;48.540;9.268;2022-10-26T10:00:40;97666.63;;;17.91;100.00
4814;BME280;15375;48.540;9.268;2022-10-26T10:03:26;97677.84;;;18.06;97.90
4814;BME280;15375;48.540;9.268;2022-10-26T10:05:52;97657.13;;;18.01;97.49
4814;BME280;15375;48.540;9.268;2022-10-26T10:08:23;97676.78;;;18.21;96.87
4814;BME280;15375;48.540;9.268;2022-10-26T10:13:25;97680.47;;;18.36;94.55
4814;BME280;15375;48.540;9.268;2022-10-26T10:16:09;97678.06;;;18.48;96.21
4814;BME280;15375;48.540;9.268;2022-10-26T10:18:36;97674.00;;;18.85;98.30
4814;BME280;15375;48.540;9.268;2022-10-26T10:21:03;97686.25;;;19.77;98.29
4814;BME280;15375;48.540;9.268;2022-10-26T10:23:46;97680.56;;;20.66;90.60
4814;BME280;15375;48.540;9.268;2022-10-26T10:26:12;97677.72;;;21.19;85.20
4814;BME280;15375;48.540;9.268;2022-10-26T10:28:39;97664.75;;;21.59;81.05
4814;BME280;15375;48.540;9.268;2022-10-26T10:31:21;97692.03;;;21.81;75.71
4814;BME280;15375;48.540;9.268;2022-10-26T10:33:47;97660.19;;;21.42;73.76
4814;BME280;15375;48.540;9.268;2022-10-26T10:36:19;97685.53;;;21.35;71.90
4814;BME280;15375;48.540;9.268;2022-10-26T10:38:47;97670.00;;;21.08;70.03
4814;BME280;15375;48.540;9.268;2022-10-26T10:41:27;97684.22;;;21.16;70.42
4814;BME280;15375;48.540;9.268;2022-10-26T10:44:06;97689.94;;;21.41;71.49
4814;BME280;15375;48.540;9.268;2022-10-26T10:46:33;97683.28;;;21.19;72.76
4814;BME280;15375;48.540;9.268;2022-10-26T10:49:03;97680.38;;;21.92;69.71
4814;BME280;15375;48.540;9.268;2022-10-26T10:51:35;97692.19;;;22.27;69.90
4814;BME280;15375;48.540;9.268;2022-10-26T10:54:03;97691.00;;;22.34;68.16
4814;BME280;15375;48.540;9.268;2022-10-26T11:05:06;97702.84;;;21.59;68.40
4814;BME280;15375;48.540;9.268;2022-10-26T11:07:51;97702.22;;;21.06;73.54
4814;BME280;15375;48.540;9.268;2022-10-26T11:10:20;97717.28;;;21.05;73.01
4814;BME280;15375;48.540;9.268;2022-10-26T11:12:58;97709.47;;;20.88;76.21
4814;BME280;15375;48.540;9.268;2022-10-26T11:15:29;97712.16;;;21.12;74.77
4814;BME280;15375;48.540;9.268;2022-10-26T11:20:34;97712.06;;;21.07;75.64
4814;BME280;15375;48.540;9.268;2022-10-26T11:25:32;97703.25;;;21.23;74.16
4814;BME280;15375;48.540;9.268;2022-10-26T11:28:05;97714.56;;;21.34;75.68
4814;BME280;15375;48.540;9.268;2022-10-26T11:30:36;97701.22;;;21.38;75.13
4814;BME280;15375;48.540;9.268;2022-10-26T11:35:56;97703.97;;;21.67;71.76
4814;BME280;15375;48.540;9.268;2022-10-26T11:38:33;97705.44;;;21.83;72.82
4814;BME280;15375;48.540;9.268;2022-10-26T11:41:21;97715.50;;;21.80;75.10
4814;BME280;15375;48.540;9.268;2022-10-26T11:43:53;97709.91;;;21.60;74.65
4814;BME280;15375;48.540;9.268;2022-10-26T11:46:38;97707.50;;;21.68;71.22
4814;BME280;15375;48.540;9.268;2022-10-26T11:49:14;97715.84;;;21.53;74.42
4814;BME280;15375;48.540;9.268;2022-10-26T11:52:42;97718.75;;;21.44;73.99
4814;BME280;15375;48.540;9.268;2022-10-26T11:54:46;97714.53;;;21.48;72.31
4814;BME280;15375;48.540;9.268;2022-10-26T11:57:14;97709.34;;;21.56;72.23
4814;BME280;15375;48.540;9.268;2022-10-26T11:59:53;97705.44;;;21.48;71.11
4814;BME280;15375;48.540;9.268;2022-10-26T12:02:24;97708.97;;;21.83;67.99
4814;BME280;15375;48.540;9.268;2022-10-26T12:05:04;97704.47;;;22.20;65.13
4814;BME280;15375;48.540;9.268;2022-10-26T12:07:34;97705.72;;;22.40;64.52
4814;BME280;15375;48.540;9.268;2022-10-26T12:10:02;97713.44;;;22.30;67.58
4814;BME280;15375;48.540;9.268;2022-10-26T12:12:47;97697.72;;;21.87;66.05
4814;BME280;15375;48.540;9.268;2022-10-26T12:15:26;97711.09;;;21.88;66.80
4814;BME280;15375;48.540;9.268;2022-10-26T12:18:05;97723.44;;;22.02;68.21
4814;BME280;15375;48.540;9.268;2022-10-26T12:23:14;97698.56;;;21.43;70.38
4814;BME280;15375;48.540;9.268;2022-10-26T12:25:40;97715.50;;;21.80;68.68
4814;BME280;15375;48.540;9.268;2022-10-26T12:39:33;97719.59;;;21.65;70.10
4814;BME280;15375;48.540;9.268;2022-10-26T12:52:42;97725.38;;;21.81;70.82
4814;BME280;15375;48.540;9.268;2022-10-26T12:58:01;97704.06;;;22.68;64.78
4814;BME280;15375;48.540;9.268;2022-10-26T13:00:28;97720.84;;;23.05;63.94
4814;BME280;15375;48.540;9.268;2022-10-26T13:03:21;97722.06;;;22.98;61.89
4814;BME280;15375;48.540;9.268;2022-10-26T13:08:43;97728.06;;;22.91;61.76
4814;BME280;15375;48.540;9.268;2022-10-26T13:11:31;97738.84;;;23.09;62.05
4814;BME280;15375;48.540;9.268;2022-10-26T13:14:03;97726.31;;;22.94;60.63
4814;BME280;15375;48.540;9.268;2022-10-26T13:16:29;97727.91;;;23.00;59.89
4814;BME280;15375;48.540;9.268;2022-10-26T13:18:55;97724.59;;;23.27;59.72
4814;BME280;15375;48.540;9.268;2022-10-26T13:21:23;97736.34;;;22.85;60.52
4814;BME280;15375;48.540;9.268;2022-10-26T13:26:19;97729.75;;;22.83;59.76
4814;BME280;15375;48.540;9.268;2022-10-26T13:31:50;97738.53;;;23.02;62.21
4814;BME280;15375;48.540;9.268;2022-10-26T13:34:17;97731.78;;;23.08;61.14
4814;BME280;15375;48.540;9.268;2022-10-26T13:36:49;97738.00;;;22.98;60.00
4814;BME280;15375;48.540;9.268;2022-10-26T13:39:37;97740.03;;;22.77;59.17
4814;BME280;15375;48.540;9.268;2022-10-26T13:42:06;97748.38;;;22.57;59.53
4814;BME280;15375;48.540;9.268;2022-10-26T13:47:04;97730.47;;;22.38;59.79
4814;BME280;15375;48.540;9.268;2022-10-26T13:49:37;97750.53;;;22.47;59.66
4814;BME280;15375;48.540;9.268;2022-10-26T13:52:05;97749.16;;;22.37;61.38
4814;BME280;15375;48.540;9.268;2022-10-26T13:55:06;97757.56;;;22.22;62.15
4814;BME280;15375;48.540;9.268;2022-10-26T13:57:38;97753.94;;;22.16;60.73
4814;BME280;15375;48.540;9.268;2022-10-26T14:00:20;97762.34;;;22.22;63.52
4814;BME280;15375;48.540;9.268;2022-10-26T14:02:46;97746.84;;;22.15;63.68
4814;BME280;15375;48.540;9.268;2022-10-26T14:05:15;97746.09;;;22.15;63.34
4814;BME280;15375;48.540;9.268;2022-10-26T14:10:28;97773.94;;;22.41;62.64
4814;BME280;15375;48.540;9.268;2022-10-26T14:12:55;97749.91;;;22.17;62.47
4814;BME280;15375;48.540;9.268;2022-10-26T14:15:27;97766.13;;;22.04;61.98
4814;BME280;15375;48.540;9.268;2022-10-26T14:17:55;97770.00;;;21.92;63.84
4814;BME280;15375;48.540;9.268;2022-10-26T14:20:22;97778.13;;;21.96;63.45
4814;BME280;15375;48.540;9.268;2022-10-26T14:22:48;97791.63;;;21.88;63.89
4814;BME280;15375;48.540;9.268;2022-10-26T14:25:24;97776.72;;;21.56;64.62
4814;BME280;15375;48.540;9.268;2022-10-26T14:27:51;97761.50;;;21.37;63.86
4814;BME280;15375;48.540;9.268;2022-10-26T14:30:31;97784.28;;;21.56;64.51
4814;BME280;15375;48.540;9.268;2022-10-26T14:32:58;97797.50;;;21.61;65.11
4814;BME280;15375;48.540;9.268;2022-10-26T14:35:33;97781.63;;;21.47;64.96
4814;BME280;15375;48.540;9.268;2022-10-26T14:38:09;97793.41;;;21.42;64.37
4814;BME280;15375;48.540;9.268;2022-10-26T14:40:39;97790.97;;;21.20;63.16
4814;BME280;15375;48.540;9.268;2022-10-26T14:43:05;97797.97;;;21.16;64.54
4814;BME280;15375;48.540;9.268;2022-10-26T14:45:35;97815.94;;;21.06;66.17
4814;BME280;15375;48.540;9.268;2022-10-26T14:48:03;97784.38;;;20.79;66.21
4814;BME280;15375;48.540;9.268;2022-10-26T14:50:29;97808.00;;;20.89;67.34
4814;BME280;15375;48.540;9.268;2022-10-26T14:53:15;97795.47;;;20.79;68.19
4814;BME280;15375;48.540;9.268;2022-10-26T14:55:50;97825.69;;;20.77;67.73
4814;BME280;15375;48.540;9.268;2022-10-26T14:58:19;97814.53;;;20.86;67.65
4814;BME280;15375;48.540;9.268;2022-10-26T15:00:46;97818.81;;;20.87;67.70
4814;BME280;15375;48.540;9.268;2022-10-26T15:03:16;97811.75;;;20.86;67.88
4814;BME280;15375;48.540;9.268;2022-10-26T15:05:45;97803.69;;;20.74;68.33
4814;BME280;15375;48.540;9.268;2022-10-26T15:11:25;97812.59;;;20.78;67.47
4814;BME280;15375;48.540;9.268;2022-10-26T15:13:52;97811.25;;;20.73;68.53
4814;BME280;15375;48.540;9.268;2022-10-26T15:16:23;97826.63;;;20.74;68.26
4814;BME280;15375;48.540;9.268;2022-10-26T15:19:06;97828.16;;;20.75;68.10
4814;BME280;15375;48.540;9.268;2022-10-26T15:21:35;97843.09;;;20.78;69.14
4814;BME280;15375;48.540;9.268;2022-10-26T15:24:02;97831.59;;;20.70;69.66
4814;BME280;15375;48.540;9.268;2022-10-26T15:26:41;97833.78;;;20.66;69.72
4814;BME280;15375;48.540;9.268;2022-10-26T15:29:45;97844.59;;;20.64;70.17
4814;BME280;15375;48.540;9.268;2022-10-26T15:32:31;97839.28;;;20.52;70.52
4814;BME280;15375;48.540;9.268;2022-10-26T15:37:48;97853.34;;;20.39;73.36
4814;BME280;15375;48.540;9.268;2022-10-26T15:40:14;97854.94;;;20.31;73.56